METAR AND TAF INFORMATION
METAR FOR FAKM
ADDS - METARS form results

(2315 UTC 24 March 2019)
Data provider http://aviationweather.gov/metar/data/
 
METAR text: FAKM 242300Z AUTO 30007KT //// // ////// 20/13 Q1016
Conditions at: FAKM (KIMBERLEY/BJ VOR, ZA) observed 2300 UTC 24 March 2019
Temperature: 20.0°C (68°F)
Dewpoint: 13.0°C (55°F) [RH = 64%]
Pressure (altimeter): 30.00 inches Hg (1016.0 mb)
Winds: from the WNW (300 degrees) at 8 MPH (7 knots; 3.6 m/s)
Visibility: missing
Ceiling: unknown
Clouds: missing
Weather: no significant weather observed at this time

 AIRPORT MAP

 RUNWAY INFORMATION
Runway 02 Runway length 9843 ft Runway width 150 ft
Runway elevation 3900 ft Runway displaced threshold 0 ft Runway heading 359
Runway 20 Runway length 9843 ft Runway width 150 ft
Runway elevation 3940 ft Runway displaced threshold 0 ft Runway heading 179
Runway 10 Runway length 8002 ft Runway width 148 ft
Runway elevation 3950 ft Runway displaced threshold 0 ft Runway heading 80
Runway 28 Runway length 8002 ft Runway width 148 ft
Runway elevation 3915 ft Runway displaced threshold 0 ft Runway heading 260

 AIRPORT FREQUENCIES
Type APP Name BLOEMFONTE Frequency 119.4 MHZ
Type GTE Name APRON Frequency 122.65 MHZ
Type TWR Name TWR Frequency 118.6 MHZ

 AIRPORT NEAR NAVIGATION AIDS
Type NDB Name Kimberley Frequency 365 KHZ
Type VOR-DME Name Kimberley Frequency 113200 KHZ



The South Africal Virtual Air Force